sensor_id;sensor_type;location;lat;lon;timestamp;P1;durP1;ratioP1;P2;durP2;ratioP2
3355;SDS011;1691;52.486;13.374;2023-09-18T00:00:45;11.37;;;10.27;;
3355;SDS011;1691;52.486;13.374;2023-09-18T00:03:19;11.20;;;10.20;;
3355;SDS011;1691;52.486;13.374;2023-09-18T00:05:51;9.83;;;9.20;;
3355;SDS011;1691;52.486;13.374;2023-09-18T00:08:19;17.07;;;10.20;;
3355;SDS011;1691;52.486;13.374;2023-09-18T00:10:47;11.63;;;10.47;;
3355;SDS011;1691;52.486;13.374;2023-09-18T00:13:22;12.87;;;10.03;;
3355;SDS011;1691;52.486;13.374;2023-09-18T00:15:49;13.60;;;9.77;;
3355;SDS011;1691;52.486;13.374;2023-09-18T00:18:21;11.37;;;9.93;;
3355;SDS011;1691;52.486;13.374;2023-09-18T00:20:49;9.47;;;8.87;;
3355;SDS011;1691;52.486;13.374;2023-09-18T00:23:18;10.90;;;8.80;;
3355;SDS011;1691;52.486;13.374;2023-09-18T00:25:45;10.30;;;9.40;;
3355;SDS011;1691;52.486;13.374;2023-09-18T00:28:13;10.60;;;9.90;;
3355;SDS011;1691;52.486;13.374;2023-09-18T00:30:46;10.03;;;9.10;;
3355;SDS011;1691;52.486;13.374;2023-09-18T00:33:16;12.40;;;9.70;;
3355;SDS011;1691;52.486;13.374;2023-09-18T00:35:49;9.97;;;9.20;;
3355;SDS011;1691;52.486;13.374;2023-09-18T00:38:17;9.30;;;8.60;;
3355;SDS011;1691;52.486;13.374;2023-09-18T00:40:46;10.77;;;10.03;;
3355;SDS011;1691;52.486;13.374;2023-09-18T00:43:13;9.83;;;9.13;;
3355;SDS011;1691;52.486;13.374;2023-09-18T00:45:42;11.87;;;9.00;;
3355;SDS011;1691;52.486;13.374;2023-09-18T00:48:12;11.33;;;9.30;;
3355;SDS011;1691;52.486;13.374;2023-09-18T00:50:41;10.77;;;9.77;;
3355;SDS011;1691;52.486;13.374;2023-09-18T00:53:11;10.30;;;9.27;;
3355;SDS011;1691;52.486;13.374;2023-09-18T00:55:43;9.80;;;9.00;;
3355;SDS011;1691;52.486;13.374;2023-09-18T00:58:10;10.33;;;9.47;;
3355;SDS011;1691;52.486;13.374;2023-09-18T01:00:37;10.70;;;9.67;;
3355;SDS011;1691;52.486;13.374;2023-09-18T01:03:06;9.93;;;8.67;;
3355;SDS011;1691;52.486;13.374;2023-09-18T01:05:33;9.27;;;8.60;;
3355;SDS011;1691;52.486;13.374;2023-09-18T01:08:02;12.73;;;9.40;;
3355;SDS011;1691;52.486;13.374;2023-09-18T01:10:36;10.27;;;9.47;;
3355;SDS011;1691;52.486;13.374;2023-09-18T01:13:17;10.10;;;9.20;;
3355;SDS011;1691;52.486;13.374;2023-09-18T01:16:03;9.50;;;8.63;;
3355;SDS011;1691;52.486;13.374;2023-09-18T01:18:38;12.93;;;8.43;;
3355;SDS011;1691;52.486;13.374;2023-09-18T01:21:15;9.17;;;8.47;;
3355;SDS011;1691;52.486;13.374;2023-09-18T01:23:43;9.37;;;8.77;;
3355;SDS011;1691;52.486;13.374;2023-09-18T01:26:09;9.43;;;8.50;;
3355;SDS011;1691;52.486;13.374;2023-09-18T01:28:36;9.07;;;8.57;;
3355;SDS011;1691;52.486;13.374;2023-09-18T01:31:03;8.90;;;8.27;;
3355;SDS011;1691;52.486;13.374;2023-09-18T01:33:30;10.30;;;9.40;;
3355;SDS011;1691;52.486;13.374;2023-09-18T01:36:00;9.03;;;8.43;;
3355;SDS011;1691;52.486;13.374;2023-09-18T01:38:28;9.50;;;8.57;;
3355;SDS011;1691;52.486;13.374;2023-09-18T01:40:56;9.13;;;8.53;;
3355;SDS011;1691;52.486;13.374;2023-09-18T01:43:23;8.30;;;7.70;;
3355;SDS011;1691;52.486;13.374;2023-09-18T01:45:50;9.43;;;8.70;;
3355;SDS011;1691;52.486;13.374;2023-09-18T01:48:18;9.93;;;9.13;;
3355;SDS011;1691;52.486;13.374;2023-09-18T01:50:45;13.20;;;8.00;;
3355;SDS011;1691;52.486;13.374;2023-09-18T01:53:12;9.90;;;9.30;;
3355;SDS011;1691;52.486;13.374;2023-09-18T01:55:39;9.13;;;8.50;;
3355;SDS011;1691;52.486;13.374;2023-09-18T01:58:05;8.97;;;8.37;;
3355;SDS011;1691;52.486;13.374;2023-09-18T02:00:33;9.33;;;8.63;;
3355;SDS011;1691;52.486;13.374;2023-09-18T02:03:01;9.93;;;9.13;;
3355;SDS011;1691;52.486;13.374;2023-09-18T02:05:44;9.07;;;8.43;;
3355;SDS011;1691;52.486;13.374;2023-09-18T02:08:11;8.60;;;8.00;;
3355;SDS011;1691;52.486;13.374;2023-09-18T02:10:38;15.30;;;8.47;;
3355;SDS011;1691;52.486;13.374;2023-09-18T02:13:05;8.40;;;8.00;;
3355;SDS011;1691;52.486;13.374;2023-09-18T02:15:32;7.90;;;7.40;;
3355;SDS011;1691;52.486;13.374;2023-09-18T02:18:01;9.40;;;8.60;;
3355;SDS011;1691;52.486;13.374;2023-09-18T02:20:28;9.43;;;8.57;;
3355;SDS011;1691;52.486;13.374;2023-09-18T02:22:55;8.80;;;8.20;;
3355;SDS011;1691;52.486;13.374;2023-09-18T02:25:22;9.40;;;8.50;;
3355;SDS011;1691;52.486;13.374;2023-09-18T02:27:49;9.70;;;8.70;;
3355;SDS011;1691;52.486;13.374;2023-09-18T02:30:17;8.40;;;7.70;;
3355;SDS011;1691;52.486;13.374;2023-09-18T02:32:45;8.30;;;7.60;;
3355;SDS011;1691;52.486;13.374;2023-09-18T02:35:12;7.93;;;7.43;;
3355;SDS011;1691;52.486;13.374;2023-09-18T02:37:39;8.30;;;7.80;;
3355;SDS011;1691;52.486;13.374;2023-09-18T02:40:07;8.20;;;7.50;;
3355;SDS011;1691;52.486;13.374;2023-09-18T02:42:34;8.60;;;8.07;;
3355;SDS011;1691;52.486;13.374;2023-09-18T02:45:01;8.13;;;7.57;;
3355;SDS011;1691;52.486;13.374;2023-09-18T02:47:56;8.50;;;7.90;;
3355;SDS011;1691;52.486;13.374;2023-09-18T02:50:57;8.93;;;8.03;;
3355;SDS011;1691;52.486;13.374;2023-09-18T02:53:58;8.67;;;7.93;;
3355;SDS011;1691;52.486;13.374;2023-09-18T02:56:46;9.03;;;8.13;;
3355;SDS011;1691;52.486;13.374;2023-09-18T02:59:44;8.73;;;8.03;;
3355;SDS011;1691;52.486;13.374;2023-09-18T03:02:31;8.80;;;8.20;;
3355;SDS011;1691;52.486;13.374;2023-09-18T03:05:13;13.30;;;8.50;;
3355;SDS011;1691;52.486;13.374;2023-09-18T03:08:13;8.90;;;8.20;;
3355;SDS011;1691;52.486;13.374;2023-09-18T03:10:48;9.27;;;8.57;;
3355;SDS011;1691;52.486;13.374;2023-09-18T03:13:55;8.43;;;7.60;;
3355;SDS011;1691;52.486;13.374;2023-09-18T03:16:27;7.90;;;7.40;;
3355;SDS011;1691;52.486;13.374;2023-09-18T03:19:07;8.90;;;8.23;;
3355;SDS011;1691;52.486;13.374;2023-09-18T03:21:51;9.30;;;8.20;;
3355;SDS011;1691;52.486;13.374;2023-09-18T03:24:42;8.00;;;7.40;;
3355;SDS011;1691;52.486;13.374;2023-09-18T03:27:33;9.20;;;8.50;;
3355;SDS011;1691;52.486;13.374;2023-09-18T03:31:13;9.10;;;8.20;;
3355;SDS011;1691;52.486;13.374;2023-09-18T03:34:32;9.33;;;8.53;;
3355;SDS011;1691;52.486;13.374;2023-09-18T03:40:06;7.47;;;7.07;;
3355;SDS011;1691;52.486;13.374;2023-09-18T03:42:52;10.63;;;9.33;;
3355;SDS011;1691;52.486;13.374;2023-09-18T03:45:31;8.97;;;8.37;;
3355;SDS011;1691;52.486;13.374;2023-09-18T03:48:15;9.83;;;7.90;;
3355;SDS011;1691;52.486;13.374;2023-09-18T03:51:07;9.37;;;8.57;;
3355;SDS011;1691;52.486;13.374;2023-09-18T03:53:41;9.10;;;8.20;;
3355;SDS011;1691;52.486;13.374;2023-09-18T03:56:10;9.07;;;8.23;;
3355;SDS011;1691;52.486;13.374;2023-09-18T03:58:40;9.40;;;8.13;;
3355;SDS011;1691;52.486;13.374;2023-09-18T04:01:20;12.53;;;9.37;;
3355;SDS011;1691;52.486;13.374;2023-09-18T04:04:02;10.43;;;9.60;;
3355;SDS011;1691;52.486;13.374;2023-09-18T04:06:44;10.40;;;9.50;;
3355;SDS011;1691;52.486;13.374;2023-09-18T04:09:25;10.27;;;9.40;;
3355;SDS011;1691;52.486;13.374;2023-09-18T04:11:59;10.00;;;9.30;;
3355;SDS011;1691;52.486;13.374;2023-09-18T04:14:37;10.47;;;9.47;;
3355;SDS011;1691;52.486;13.374;2023-09-18T04:17:43;10.40;;;9.53;;
3355;SDS011;1691;52.486;13.374;2023-09-18T04:20:18;10.20;;;9.30;;
3355;SDS011;1691;52.486;13.374;2023-09-18T04:23:17;10.83;;;9.70;;
3355;SDS011;1691;52.486;13.374;2023-09-18T04:25:52;9.33;;;8.63;;
3355;SDS011;1691;52.486;13.374;2023-09-18T04:28:38;9.53;;;8.67;;
3355;SDS011;1691;52.486;13.374;2023-09-18T04:31:29;10.33;;;9.63;;
3355;SDS011;1691;52.486;13.374;2023-09-18T04:34:03;10.30;;;9.40;;
3355;SDS011;1691;52.486;13.374;2023-09-18T04:36:58;12.40;;;8.43;;
3355;SDS011;1691;52.486;13.374;2023-09-18T04:39:32;9.20;;;8.60;;
3355;SDS011;1691;52.486;13.374;2023-09-18T04:42:25;10.60;;;9.30;;
3355;SDS011;1691;52.486;13.374;2023-09-18T04:45:15;9.87;;;8.93;;
3355;SDS011;1691;52.486;13.374;2023-09-18T04:47:54;9.23;;;8.43;;
3355;SDS011;1691;52.486;13.374;2023-09-18T04:50:33;10.63;;;9.30;;
3355;SDS011;1691;52.486;13.374;2023-09-18T04:53:07;9.87;;;8.87;;
3355;SDS011;1691;52.486;13.374;2023-09-18T04:56:01;15.70;;;8.60;;
3355;SDS011;1691;52.486;13.374;2023-09-18T04:58:40;8.93;;;8.33;;
3355;SDS011;1691;52.486;13.374;2023-09-18T05:01:09;9.27;;;8.43;;
3355;SDS011;1691;52.486;13.374;2023-09-18T05:03:56;13.67;;;8.20;;
3355;SDS011;1691;52.486;13.374;2023-09-18T05:06:39;9.70;;;8.80;;
3355;SDS011;1691;52.486;13.374;2023-09-18T05:09:15;18.50;;;15.37;;
3355;SDS011;1691;52.486;13.374;2023-09-18T05:12:13;10.10;;;8.10;;
3355;SDS011;1691;52.486;13.374;2023-09-18T05:15:03;8.43;;;7.40;;
3355;SDS011;1691;52.486;13.374;2023-09-18T05:17:59;8.83;;;8.10;;
3355;SDS011;1691;52.486;13.374;2023-09-18T05:20:47;8.90;;;8.20;;
3355;SDS011;1691;52.486;13.374;2023-09-18T05:23:39;8.40;;;7.70;;
3355;SDS011;1691;52.486;13.374;2023-09-18T05:26:26;7.70;;;7.30;;
3355;SDS011;1691;52.486;13.374;2023-09-18T05:29:07;7.40;;;7.00;;
3355;SDS011;1691;52.486;13.374;2023-09-18T05:31:41;7.47;;;6.97;;
3355;SDS011;1691;52.486;13.374;2023-09-18T05:34:15;10.10;;;7.00;;
3355;SDS011;1691;52.486;13.374;2023-09-18T05:37:01;7.37;;;6.77;;
3355;SDS011;1691;52.486;13.374;2023-09-18T05:39:46;8.40;;;7.27;;
3355;SDS011;1691;52.486;13.374;2023-09-18T05:42:21;8.27;;;7.40;;
3355;SDS011;1691;52.486;13.374;2023-09-18T05:44:58;7.93;;;6.27;;
3355;SDS011;1691;52.486;13.374;2023-09-18T05:47:39;9.57;;;6.40;;
3355;SDS011;1691;52.486;13.374;2023-09-18T05:50:20;13.27;;;6.53;;
3355;SDS011;1691;52.486;13.374;2023-09-18T05:53:01;6.03;;;5.63;;
3355;SDS011;1691;52.486;13.374;2023-09-18T05:55:38;10.30;;;6.33;;
3355;SDS011;1691;52.486;13.374;2023-09-18T05:58:13;6.77;;;6.27;;
3355;SDS011;1691;52.486;13.374;2023-09-18T06:00:55;6.50;;;5.83;;
3355;SDS011;1691;52.486;13.374;2023-09-18T06:03:50;5.90;;;5.50;;
3355;SDS011;1691;52.486;13.374;2023-09-18T06:06:27;5.30;;;4.80;;
3355;SDS011;1691;52.486;13.374;2023-09-18T06:08:57;7.43;;;5.50;;
3355;SDS011;1691;52.486;13.374;2023-09-18T06:11:39;7.70;;;6.40;;
3355;SDS011;1691;52.486;13.374;2023-09-18T06:14:13;6.67;;;6.10;;
3355;SDS011;1691;52.486;13.374;2023-09-18T06:16:41;6.80;;;6.30;;
3355;SDS011;1691;52.486;13.374;2023-09-18T06:19:09;8.90;;;5.80;;
3355;SDS011;1691;52.486;13.374;2023-09-18T06:21:37;13.83;;;6.27;;
3355;SDS011;1691;52.486;13.374;2023-09-18T06:24:05;12.23;;;5.47;;
3355;SDS011;1691;52.486;13.374;2023-09-18T06:26:36;8.47;;;6.00;;
3355;SDS011;1691;52.486;13.374;2023-09-18T06:29:07;7.00;;;6.43;;
3355;SDS011;1691;52.486;13.374;2023-09-18T06:31:43;6.70;;;5.30;;
3355;SDS011;1691;52.486;13.374;2023-09-18T06:34:31;6.47;;;5.90;;
3355;SDS011;1691;52.486;13.374;2023-09-18T06:37:14;8.10;;;5.80;;
3355;SDS011;1691;52.486;13.374;2023-09-18T06:39:49;6.80;;;5.73;;
3355;SDS011;1691;52.486;13.374;2023-09-18T06:42:25;8.00;;;5.23;;
3355;SDS011;1691;52.486;13.374;2023-09-18T06:45:08;6.30;;;5.70;;
3355;SDS011;1691;52.486;13.374;2023-09-18T06:47:46;9.33;;;5.77;;
3355;SDS011;1691;52.486;13.374;2023-09-18T06:50:42;4.80;;;4.60;;
3355;SDS011;1691;52.486;13.374;2023-09-18T06:53:16;4.97;;;4.67;;
3355;SDS011;1691;52.486;13.374;2023-09-18T06:56:06;9.30;;;5.17;;
3355;SDS011;1691;52.486;13.374;2023-09-18T06:58:48;5.63;;;4.60;;
3355;SDS011;1691;52.486;13.374;2023-09-18T07:01:29;5.20;;;4.77;;
3355;SDS011;1691;52.486;13.374;2023-09-18T07:04:06;4.03;;;3.83;;
3355;SDS011;1691;52.486;13.374;2023-09-18T07:06:59;4.80;;;4.30;;
3355;SDS011;1691;52.486;13.374;2023-09-18T07:09:46;4.77;;;4.37;;
3355;SDS011;1691;52.486;13.374;2023-09-18T07:12:26;4.47;;;4.23;;
3355;SDS011;1691;52.486;13.374;2023-09-18T07:15:08;4.37;;;3.93;;
3355;SDS011;1691;52.486;13.374;2023-09-18T07:17:49;12.20;;;4.13;;
3355;SDS011;1691;52.486;13.374;2023-09-18T07:20:27;6.07;;;4.10;;
3355;SDS011;1691;52.486;13.374;2023-09-18T07:23:05;4.17;;;3.87;;
3355;SDS011;1691;52.486;13.374;2023-09-18T07:25:51;5.33;;;3.23;;
3355;SDS011;1691;52.486;13.374;2023-09-18T07:28:46;4.97;;;4.47;;
3355;SDS011;1691;52.486;13.374;2023-09-18T07:31:57;5.63;;;3.60;;
3355;SDS011;1691;52.486;13.374;2023-09-18T07:35:09;4.10;;;3.80;;
3355;SDS011;1691;52.486;13.374;2023-09-18T07:37:52;7.63;;;3.50;;
3355;SDS011;1691;52.486;13.374;2023-09-18T07:40:34;3.60;;;3.40;;
3355;SDS011;1691;52.486;13.374;2023-09-18T07:43:44;3.60;;;3.40;;
3355;SDS011;1691;52.486;13.374;2023-09-18T07:46:20;4.03;;;3.63;;
3355;SDS011;1691;52.486;13.374;2023-09-18T07:49:04;3.60;;;3.40;;
3355;SDS011;1691;52.486;13.374;2023-09-18T07:51:40;3.80;;;3.50;;
3355;SDS011;1691;52.486;13.374;2023-09-18T07:54:30;4.80;;;3.93;;
3355;SDS011;1691;52.486;13.374;2023-09-18T07:57:17;8.23;;;4.07;;
3355;SDS011;1691;52.486;13.374;2023-09-18T08:00:03;4.07;;;2.90;;
3355;SDS011;1691;52.486;13.374;2023-09-18T08:02:47;4.00;;;3.47;;
3355;SDS011;1691;52.486;13.374;2023-09-18T08:05:22;3.37;;;3.20;;
3355;SDS011;1691;52.486;13.374;2023-09-18T08:08:14;9.80;;;3.80;;
3355;SDS011;1691;52.486;13.374;2023-09-18T08:11:09;4.80;;;3.10;;
3355;SDS011;1691;52.486;13.374;2023-09-18T08:13:52;3.43;;;3.33;;
3355;SDS011;1691;52.486;13.374;2023-09-18T08:16:27;4.53;;;3.23;;
3355;SDS011;1691;52.486;13.374;2023-09-18T08:19:06;3.90;;;3.57;;
3355;SDS011;1691;52.486;13.374;2023-09-18T08:21:53;3.00;;;2.90;;
3355;SDS011;1691;52.486;13.374;2023-09-18T08:24:36;10.53;;;2.60;;
3355;SDS011;1691;52.486;13.374;2023-09-18T08:27:20;3.20;;;3.00;;
3355;SDS011;1691;52.486;13.374;2023-09-18T08:29:57;11.00;;;3.13;;
3355;SDS011;1691;52.486;13.374;2023-09-18T08:32:36;3.30;;;3.10;;
3355;SDS011;1691;52.486;13.374;2023-09-18T08:35:11;3.30;;;3.20;;
3355;SDS011;1691;52.486;13.374;2023-09-18T08:38:05;19.27;;;3.60;;
3355;SDS011;1691;52.486;13.374;2023-09-18T08:40:48;2.97;;;2.87;;
3355;SDS011;1691;52.486;13.374;2023-09-18T08:43:27;2.80;;;2.70;;
3355;SDS011;1691;52.486;13.374;2023-09-18T08:46:09;4.63;;;2.87;;
3355;SDS011;1691;52.486;13.374;2023-09-18T08:48:49;9.10;;;3.10;;
3355;SDS011;1691;52.486;13.374;2023-09-18T08:51:34;3.03;;;2.87;;
3355;SDS011;1691;52.486;13.374;2023-09-18T08:54:08;3.00;;;2.90;;
3355;SDS011;1691;52.486;13.374;2023-09-18T08:56:50;2.37;;;2.27;;
3355;SDS011;1691;52.486;13.374;2023-09-18T08:59:29;8.73;;;3.17;;
3355;SDS011;1691;52.486;13.374;2023-09-18T09:02:27;3.77;;;3.47;;
3355;SDS011;1691;52.486;13.374;2023-09-18T09:05:14;3.47;;;3.17;;
3355;SDS011;1691;52.486;13.374;2023-09-18T09:07:49;11.57;;;3.60;;
3355;SDS011;1691;52.486;13.374;2023-09-18T09:10:28;3.33;;;3.23;;
3355;SDS011;1691;52.486;13.374;2023-09-18T09:13:11;3.30;;;3.20;;
3355;SDS011;1691;52.486;13.374;2023-09-18T09:16:13;2.30;;;2.20;;
3355;SDS011;1691;52.486;13.374;2023-09-18T09:19:03;5.77;;;3.10;;
3355;SDS011;1691;52.486;13.374;2023-09-18T09:22:28;2.70;;;2.60;;
3355;SDS011;1691;52.486;13.374;2023-09-18T09:25:25;3.93;;;2.80;;
3355;SDS011;1691;52.486;13.374;2023-09-18T09:28:06;2.60;;;2.50;;
3355;SDS011;1691;52.486;13.374;2023-09-18T09:30:46;3.17;;;3.07;;
3355;SDS011;1691;52.486;13.374;2023-09-18T09:33:23;2.83;;;2.73;;
3355;SDS011;1691;52.486;13.374;2023-09-18T09:36:00;2.87;;;2.77;;
3355;SDS011;1691;52.486;13.374;2023-09-18T09:38:44;3.57;;;3.27;;
3355;SDS011;1691;52.486;13.374;2023-09-18T09:41:17;2.70;;;2.60;;
3355;SDS011;1691;52.486;13.374;2023-09-18T09:43:57;2.77;;;2.67;;
3355;SDS011;1691;52.486;13.374;2023-09-18T09:46:49;3.00;;;2.90;;
3355;SDS011;1691;52.486;13.374;2023-09-18T09:52:36;7.80;;;3.43;;
3355;SDS011;1691;52.486;13.374;2023-09-18T09:55:28;4.53;;;3.40;;
3355;SDS011;1691;52.486;13.374;2023-09-18T09:58:09;3.33;;;3.00;;
3355;SDS011;1691;52.486;13.374;2023-09-18T10:00:52;5.27;;;4.57;;
3355;SDS011;1691;52.486;13.374;2023-09-18T10:03:45;4.10;;;3.70;;
3355;SDS011;1691;52.486;13.374;2023-09-18T10:06:19;5.90;;;3.10;;
3355;SDS011;1691;52.486;13.374;2023-09-18T10:09:01;3.77;;;3.67;;
3355;SDS011;1691;52.486;13.374;2023-09-18T10:11:49;3.10;;;3.00;;
3355;SDS011;1691;52.486;13.374;2023-09-18T10:14:33;6.80;;;3.60;;
3355;SDS011;1691;52.486;13.374;2023-09-18T10:17:27;3.93;;;3.73;;
3355;SDS011;1691;52.486;13.374;2023-09-18T10:20:11;3.33;;;3.23;;
3355;SDS011;1691;52.486;13.374;2023-09-18T10:22:52;7.03;;;3.70;;
3355;SDS011;1691;52.486;13.374;2023-09-18T10:25:29;10.43;;;3.67;;
3355;SDS011;1691;52.486;13.374;2023-09-18T10:28:05;4.13;;;2.93;;
3355;SDS011;1691;52.486;13.374;2023-09-18T10:30:52;5.23;;;3.37;;
3355;SDS011;1691;52.486;13.374;2023-09-18T10:33:25;3.77;;;3.47;;
3355;SDS011;1691;52.486;13.374;2023-09-18T10:36:03;3.00;;;2.80;;
3355;SDS011;1691;52.486;13.374;2023-09-18T10:38:39;3.80;;;3.50;;
3355;SDS011;1691;52.486;13.374;2023-09-18T10:41:25;5.33;;;4.10;;
3355;SDS011;1691;52.486;13.374;2023-09-18T10:44:02;3.70;;;3.40;;
3355;SDS011;1691;52.486;13.374;2023-09-18T10:46:37;3.80;;;3.27;;
3355;SDS011;1691;52.486;13.374;2023-09-18T10:49:20;3.50;;;3.33;;
3355;SDS011;1691;52.486;13.374;2023-09-18T10:52:05;3.87;;;3.57;;
3355;SDS011;1691;52.486;13.374;2023-09-18T10:54:43;3.90;;;3.60;;
3355;SDS011;1691;52.486;13.374;2023-09-18T10:57:22;4.13;;;3.90;;
3355;SDS011;1691;52.486;13.374;2023-09-18T11:00:32;7.87;;;3.60;;
3355;SDS011;1691;52.486;13.374;2023-09-18T11:03:15;11.43;;;3.90;;
3355;SDS011;1691;52.486;13.374;2023-09-18T11:06:02;3.97;;;3.67;;
3355;SDS011;1691;52.486;13.374;2023-09-18T11:14:41;4.00;;;3.57;;
3355;SDS011;1691;52.486;13.374;2023-09-18T11:17:41;4.80;;;3.83;;
3355;SDS011;1691;52.486;13.374;2023-09-18T11:20:37;5.73;;;4.13;;
3355;SDS011;1691;52.486;13.374;2023-09-18T11:23:17;6.87;;;3.60;;
3355;SDS011;1691;52.486;13.374;2023-09-18T11:26:16;4.87;;;3.67;;
3355;SDS011;1691;52.486;13.374;2023-09-18T11:29:01;5.57;;;3.70;;
3355;SDS011;1691;52.486;13.374;2023-09-18T11:34:33;4.70;;;3.70;;
3355;SDS011;1691;52.486;13.374;2023-09-18T11:37:23;3.77;;;3.57;;
3355;SDS011;1691;52.486;13.374;2023-09-18T11:39:57;6.90;;;3.80;;
3355;SDS011;1691;52.486;13.374;2023-09-18T11:42:37;3.93;;;3.73;;
3355;SDS011;1691;52.486;13.374;2023-09-18T11:45:16;4.17;;;3.87;;
3355;SDS011;1691;52.486;13.374;2023-09-18T11:47:55;3.80;;;3.60;;
3355;SDS011;1691;52.486;13.374;2023-09-18T11:50:31;4.47;;;4.03;;
3355;SDS011;1691;52.486;13.374;2023-09-18T11:53:07;4.10;;;3.90;;
3355;SDS011;1691;52.486;13.374;2023-09-18T11:55:44;3.60;;;3.50;;
3355;SDS011;1691;52.486;13.374;2023-09-18T11:58:31;6.10;;;4.10;;
3355;SDS011;1691;52.486;13.374;2023-09-18T12:01:21;10.37;;;4.00;;
3355;SDS011;1691;52.486;13.374;2023-09-18T12:04:10;6.60;;;3.83;;
3355;SDS011;1691;52.486;13.374;2023-09-18T12:06:57;5.30;;;4.90;;
3355;SDS011;1691;52.486;13.374;2023-09-18T12:09:47;4.23;;;3.87;;
3355;SDS011;1691;52.486;13.374;2023-09-18T12:12:22;4.23;;;3.83;;
3355;SDS011;1691;52.486;13.374;2023-09-18T12:15:13;7.30;;;4.30;;
3355;SDS011;1691;52.486;13.374;2023-09-18T12:18:05;3.30;;;3.20;;
3355;SDS011;1691;52.486;13.374;2023-09-18T12:20:45;3.93;;;3.83;;
3355;SDS011;1691;52.486;13.374;2023-09-18T12:23:24;6.07;;;4.00;;
3355;SDS011;1691;52.486;13.374;2023-09-18T12:26:05;4.57;;;4.17;;
3355;SDS011;1691;52.486;13.374;2023-09-18T12:28:53;4.00;;;3.90;;
3355;SDS011;1691;52.486;13.374;2023-09-18T12:31:34;7.37;;;3.93;;
3355;SDS011;1691;52.486;13.374;2023-09-18T12:34:27;5.30;;;4.00;;
3355;SDS011;1691;52.486;13.374;2023-09-18T12:37:04;5.27;;;4.97;;
3355;SDS011;1691;52.486;13.374;2023-09-18T12:39:47;7.23;;;4.00;;
3355;SDS011;1691;52.486;13.374;2023-09-18T12:42:27;3.70;;;3.50;;
3355;SDS011;1691;52.486;13.374;2023-09-18T12:45:04;3.70;;;3.60;;
3355;SDS011;1691;52.486;13.374;2023-09-18T12:47:46;7.03;;;4.10;;
3355;SDS011;1691;52.486;13.374;2023-09-18T12:50:36;4.03;;;3.63;;
3355;SDS011;1691;52.486;13.374;2023-09-18T12:53:11;8.37;;;3.40;;
3355;SDS011;1691;52.486;13.374;2023-09-18T12:59:04;5.27;;;3.83;;
3355;SDS011;1691;52.486;13.374;2023-09-18T13:01:47;2.83;;;2.70;;
3355;SDS011;1691;52.486;13.374;2023-09-18T13:04:32;10.97;;;3.40;;
3355;SDS011;1691;52.486;13.374;2023-09-18T13:07:42;3.13;;;3.03;;
3355;SDS011;1691;52.486;13.374;2023-09-18T13:10:45;4.70;;;3.77;;
3355;SDS011;1691;52.486;13.374;2023-09-18T13:13:28;10.30;;;4.30;;
3355;SDS011;1691;52.486;13.374;2023-09-18T13:16:04;10.63;;;4.07;;
3355;SDS011;1691;52.486;13.374;2023-09-18T13:18:53;5.43;;;3.73;;
3355;SDS011;1691;52.486;13.374;2023-09-18T13:21:30;5.20;;;4.10;;
3355;SDS011;1691;52.486;13.374;2023-09-18T13:24:07;9.07;;;4.77;;
3355;SDS011;1691;52.486;13.374;2023-09-18T13:27:10;27.90;;;5.40;;
3355;SDS011;1691;52.486;13.374;2023-09-18T13:29:43;4.70;;;4.40;;
3355;SDS011;1691;52.486;13.374;2023-09-18T13:32:16;6.80;;;3.73;;
3355;SDS011;1691;52.486;13.374;2023-09-18T13:34:56;4.83;;;4.03;;
3355;SDS011;1691;52.486;13.374;2023-09-18T13:37:27;13.90;;;4.60;;
3355;SDS011;1691;52.486;13.374;2023-09-18T13:40:06;7.07;;;4.40;;
3355;SDS011;1691;52.486;13.374;2023-09-18T13:42:51;17.37;;;4.60;;
3355;SDS011;1691;52.486;13.374;2023-09-18T13:45:30;5.93;;;4.70;;
3355;SDS011;1691;52.486;13.374;2023-09-18T13:48:12;8.03;;;4.23;;
3355;SDS011;1691;52.486;13.374;2023-09-18T13:50:55;8.13;;;5.10;;
3355;SDS011;1691;52.486;13.374;2023-09-18T13:53:41;11.83;;;6.07;;
3355;SDS011;1691;52.486;13.374;2023-09-18T13:56:44;9.63;;;4.50;;
3355;SDS011;1691;52.486;13.374;2023-09-18T13:59:25;5.13;;;4.63;;
3355;SDS011;1691;52.486;13.374;2023-09-18T14:01:52;5.20;;;4.80;;
3355;SDS011;1691;52.486;13.374;2023-09-18T14:04:21;6.47;;;5.53;;
3355;SDS011;1691;52.486;13.374;2023-09-18T14:06:48;4.87;;;4.40;;
3355;SDS011;1691;52.486;13.374;2023-09-18T14:09:15;7.13;;;4.60;;
3355;SDS011;1691;52.486;13.374;2023-09-18T14:11:43;9.43;;;4.03;;
3355;SDS011;1691;52.486;13.374;2023-09-18T14:14:11;5.53;;;4.10;;
3355;SDS011;1691;52.486;13.374;2023-09-18T14:16:38;15.60;;;4.50;;
3355;SDS011;1691;52.486;13.374;2023-09-18T14:19:05;5.67;;;4.30;;
3355;SDS011;1691;52.486;13.374;2023-09-18T14:21:37;17.83;;;3.97;;
3355;SDS011;1691;52.486;13.374;2023-09-18T14:24:05;11.57;;;4.50;;
3355;SDS011;1691;52.486;13.374;2023-09-18T14:26:33;18.00;;;4.40;;
3355;SDS011;1691;52.486;13.374;2023-09-18T14:29:01;4.33;;;3.93;;
3355;SDS011;1691;52.486;13.374;2023-09-18T14:31:28;9.80;;;4.43;;
3355;SDS011;1691;52.486;13.374;2023-09-18T14:33:55;9.73;;;4.83;;
3355;SDS011;1691;52.486;13.374;2023-09-18T14:36:25;8.73;;;3.83;;
3355;SDS011;1691;52.486;13.374;2023-09-18T14:38:52;4.80;;;4.40;;
3355;SDS011;1691;52.486;13.374;2023-09-18T14:41:21;10.23;;;4.50;;
3355;SDS011;1691;52.486;13.374;2023-09-18T14:43:51;4.10;;;3.80;;
3355;SDS011;1691;52.486;13.374;2023-09-18T14:46:18;11.90;;;3.80;;
3355;SDS011;1691;52.486;13.374;2023-09-18T14:48:45;16.13;;;3.33;;
3355;SDS011;1691;52.486;13.374;2023-09-18T14:51:12;9.53;;;3.50;;
3355;SDS011;1691;52.486;13.374;2023-09-18T14:53:39;21.43;;;3.93;;
3355;SDS011;1691;52.486;13.374;2023-09-18T14:56:07;10.87;;;7.53;;
3355;SDS011;1691;52.486;13.374;2023-09-18T14:58:34;11.20;;;3.00;;
3355;SDS011;1691;52.486;13.374;2023-09-18T15:01:01;6.20;;;2.87;;
3355;SDS011;1691;52.486;13.374;2023-09-18T15:03:29;9.00;;;2.70;;
3355;SDS011;1691;52.486;13.374;2023-09-18T15:05:56;12.80;;;2.40;;
3355;SDS011;1691;52.486;13.374;2023-09-18T15:08:23;8.60;;;3.13;;
3355;SDS011;1691;52.486;13.374;2023-09-18T15:10:51;7.30;;;2.57;;
3355;SDS011;1691;52.486;13.374;2023-09-18T15:13:18;3.40;;;3.20;;
3355;SDS011;1691;52.486;13.374;2023-09-18T15:15:45;8.37;;;2.73;;
3355;SDS011;1691;52.486;13.374;2023-09-18T15:18:12;3.10;;;2.10;;
3355;SDS011;1691;52.486;13.374;2023-09-18T15:20:40;4.23;;;2.97;;
3355;SDS011;1691;52.486;13.374;2023-09-18T15:23:07;7.10;;;2.03;;
3355;SDS011;1691;52.486;13.374;2023-09-18T15:25:36;9.90;;;2.87;;
3355;SDS011;1691;52.486;13.374;2023-09-18T15:28:04;5.30;;;2.67;;
3355;SDS011;1691;52.486;13.374;2023-09-18T15:30:31;3.80;;;3.30;;
3355;SDS011;1691;52.486;13.374;2023-09-18T15:32:59;6.80;;;2.93;;
3355;SDS011;1691;52.486;13.374;2023-09-18T15:35:26;8.50;;;2.80;;
3355;SDS011;1691;52.486;13.374;2023-09-18T15:37:53;6.50;;;2.60;;
3355;SDS011;1691;52.486;13.374;2023-09-18T15:40:21;5.43;;;2.73;;
3355;SDS011;1691;52.486;13.374;2023-09-18T15:42:49;3.43;;;2.50;;
3355;SDS011;1691;52.486;13.374;2023-09-18T15:45:16;19.10;;;2.83;;
3355;SDS011;1691;52.486;13.374;2023-09-18T15:47:44;9.47;;;2.47;;
3355;SDS011;1691;52.486;13.374;2023-09-18T15:50:11;4.53;;;3.77;;
3355;SDS011;1691;52.486;13.374;2023-09-18T15:52:39;4.67;;;3.13;;
3355;SDS011;1691;52.486;13.374;2023-09-18T15:55:07;20.07;;;4.53;;
3355;SDS011;1691;52.486;13.374;2023-09-18T15:57:34;5.30;;;2.87;;
3355;SDS011;1691;52.486;13.374;2023-09-18T16:00:05;8.37;;;2.40;;
3355;SDS011;1691;52.486;13.374;2023-09-18T16:02:34;4.07;;;2.87;;
3355;SDS011;1691;52.486;13.374;2023-09-18T16:05:02;6.40;;;3.80;;
3355;SDS011;1691;52.486;13.374;2023-09-18T16:07:33;8.83;;;3.80;;
3355;SDS011;1691;52.486;13.374;2023-09-18T16:10:02;7.77;;;3.40;;
3355;SDS011;1691;52.486;13.374;2023-09-18T16:12:30;18.63;;;3.57;;
3355;SDS011;1691;52.486;13.374;2023-09-18T16:15:00;5.73;;;2.93;;
3355;SDS011;1691;52.486;13.374;2023-09-18T16:17:29;5.57;;;3.50;;
3355;SDS011;1691;52.486;13.374;2023-09-18T16:19:57;8.37;;;3.90;;
3355;SDS011;1691;52.486;13.374;2023-09-18T16:22:24;6.80;;;3.53;;
3355;SDS011;1691;52.486;13.374;2023-09-18T16:24:53;9.30;;;3.40;;